Time;durP1;ratioP1;P1;durP2;ratioP2;P2;SDS_P1;SDS_P2;PMS_P1;PMS_P2;Temp;Humidity;BMP_temperature;BMP_pressure;BME280_temperature;BME280_humidity;BME280_pressure;Samples;Min_cycle;Max_cycle;Signal;HPM_P1;HPM_P2
2023/04/13 01:42:42;;;;;;;3.55;1.15;;;6.30;99.90;;;;;;3050058;23;20516;-52
2023/04/13 01:45:52;;;;;;;3.28;1.30;;;6.40;99.90;;;;;;5007561;28;20050;-56
2023/04/13 01:48:28;;;;;;;6.60;1.27;;;6.60;99.90;;;;;;5005502;28;20096;-50
2023/04/13 01:50:59;;;;;;;6.07;1.25;;;6.20;99.90;;;;;;5003339;28;20105;-51
2023/04/13 01:53:35;;;;;;;5.07;1.55;;;6.40;99.90;;;;;;5004506;28;20038;-54
2023/04/13 01:56:03;;;;;;;4.15;1.33;;;6.20;99.90;;;;;;4990438;28;20116;-57
2023/04/13 01:58:32;;;;;;;4.72;1.33;;;6.40;99.90;;;;;;5007947;28;20046;-50
2023/04/13 02:00:58;;;;;;;3.08;1.13;;;6.20;99.90;;;;;;5007853;28;20093;-54
2023/04/13 02:03:25;;;;;;;6.10;1.50;;;6.50;99.90;;;;;;5008308;28;20037;-55
2023/04/13 02:05:51;;;;;;;6.82;1.35;;;6.60;99.90;;;;;;5008154;28;20046;-53
2023/04/13 02:08:17;;;;;;;3.65;1.30;;;6.20;99.90;;;;;;4989636;28;20057;-50
2023/04/13 02:10:44;;;;;;;3.45;1.30;;;6.50;99.90;;;;;;5007650;28;20445;-55
2023/04/13 02:13:10;;;;;;;3.05;1.13;;;6.50;99.90;;;;;;5008240;28;20503;-59
2023/04/13 02:15:39;;;;;;;3.08;1.33;;;6.10;99.90;;;;;;5007626;28;20448;-51
2023/04/13 02:18:05;;;;;;;5.53;1.23;;;6.50;99.90;;;;;;5006388;28;20033;-49
2023/04/13 02:20:42;;;;;;;4.25;1.40;;;6.50;99.90;;;;;;4998546;28;20077;-57
2023/04/13 02:23:09;;;;;;;3.03;1.15;;;6.60;99.90;;;;;;5001581;28;20050;-59
2023/04/13 02:25:35;;;;;;;5.75;1.67;;;6.40;99.90;;;;;;5003927;28;20251;-52
2023/04/13 02:28:01;;;;;;;3.33;1.83;;;6.60;99.90;;;;;;5007855;28;20037;-56
2023/04/13 02:30:27;;;;;;;4.82;1.70;;;6.30;99.90;;;;;;5002398;28;20034;-55
2023/04/13 02:32:54;;;;;;;3.38;1.60;;;6.60;99.90;;;;;;4956093;28;20105;-55
2023/04/13 02:35:20;;;;;;;3.72;1.50;;;6.40;99.90;;;;;;4980003;28;20073;-55
2023/04/13 02:37:47;;;;;;;4.25;1.48;;;6.70;99.90;;;;;;4979537;28;20041;-57
2023/04/13 02:40:14;;;;;;;4.93;1.70;;;6.20;99.90;;;;;;4977713;28;20039;-52
2023/04/13 02:42:40;;;;;;;2.92;1.40;;;6.60;99.90;;;;;;4977779;28;20129;-52
2023/04/13 02:45:11;;;;;;;5.30;1.85;;;6.40;99.90;;;;;;4973291;28;20057;-57
2023/04/13 02:47:38;;;;;;;4.82;1.70;;;6.30;99.90;;;;;;4983374;28;20133;-55
2023/04/13 02:50:04;;;;;;;3.35;1.50;;;7.00;99.90;;;;;;4984973;28;20533;-58
2023/04/13 02:52:30;;;;;;;5.65;1.67;;;6.30;99.90;;;;;;4982834;28;20551;-54
2023/04/13 02:54:56;;;;;;;4.30;1.50;;;6.50;99.90;;;;;;4980480;28;20035;-54
2023/04/13 02:57:23;;;;;;;4.80;1.63;;;6.70;99.90;;;;;;4979410;28;20043;-48
2023/04/13 02:59:50;;;;;;;5.40;1.77;;;6.70;99.90;;;;;;4985359;28;20047;-57
2023/04/13 03:02:16;;;;;;;6.45;1.60;;;6.20;99.90;;;;;;4980233;28;20478;-57
2023/04/13 03:04:43;;;;;;;3.53;1.60;;;6.50;99.90;;;;;;4978203;28;20524;-47
2023/04/13 03:07:09;;;;;;;5.07;1.77;;;6.50;99.90;;;;;;4980743;28;20070;-54
2023/04/13 03:09:38;;;;;;;3.85;1.98;;;6.30;99.90;;;;;;4977872;28;20030;-54
2023/04/13 03:12:08;;;;;;;6.10;1.67;;;6.10;99.90;;;;;;4981155;28;20032;-51
2023/04/13 03:14:35;;;;;;;4.70;1.58;;;6.30;99.90;;;;;;4985588;28;20117;-53
2023/04/13 03:17:02;;;;;;;3.65;1.85;;;6.50;99.90;;;;;;4981361;28;20043;-56
2023/04/13 03:19:28;;;;;;;6.40;1.60;;;6.10;99.90;;;;;;4981287;28;20398;-54
2023/04/13 03:21:54;;;;;;;3.67;1.50;;;6.50;99.90;;;;;;4978913;28;20513;-53
2023/04/13 03:24:20;;;;;;;3.33;1.70;;;6.10;99.90;;;;;;4979920;28;20027;-53
2023/04/13 03:26:46;;;;;;;3.78;1.75;;;6.60;99.90;;;;;;4982027;28;20037;-50
2023/04/13 03:29:12;;;;;;;3.47;1.80;;;6.40;99.90;;;;;;4977206;28;20042;-53
2023/04/13 03:31:37;;;;;;;4.25;1.95;;;6.80;99.90;;;;;;4978960;28;20037;-56
2023/04/13 03:34:03;;;;;;;5.00;1.98;;;6.20;99.90;;;;;;4980202;28;20033;-54
2023/04/13 03:36:30;;;;;;;4.38;1.60;;;6.50;99.90;;;;;;4978321;28;20041;-54
2023/04/13 03:38:56;;;;;;;3.70;1.95;;;6.60;99.90;;;;;;4979243;28;20098;-54
2023/04/13 03:41:22;;;;;;;5.55;2.13;;;6.30;99.90;;;;;;4982467;28;20043;-57
2023/04/13 03:43:48;;;;;;;4.25;2.30;;;6.80;99.90;;;;;;4988606;28;20046;-57
2023/04/13 03:46:14;;;;;;;5.30;2.80;;;6.30;99.90;;;;;;5001435;28;20528;-54
2023/04/13 03:48:40;;;;;;;5.38;2.88;;;6.30;99.90;;;;;;5002654;28;20030;-53
2023/04/13 03:51:07;;;;;;;7.20;2.42;;;6.30;99.90;;;;;;5000193;28;20073;-54
2023/04/13 03:53:35;;;;;;;5.13;2.72;;;6.70;99.90;;;;;;5000002;28;20073;-51
2023/04/13 03:56:01;;;;;;;7.55;2.92;;;6.80;99.90;;;;;;5002275;28;20048;-57
2023/04/13 03:58:27;;;;;;;8.77;2.70;;;6.30;99.90;;;;;;5002712;28;20493;-52
2023/04/13 04:00:52;;;;;;;5.72;3.00;;;6.20;99.90;;;;;;5001857;28;20038;-55
2023/04/13 04:03:20;;;;;;;7.40;3.42;;;6.20;99.90;;;;;;5001918;28;20095;-57
2023/04/13 04:05:46;;;;;;;5.50;2.75;;;6.70;99.90;;;;;;5001743;28;20115;-52
2023/04/13 04:08:12;;;;;;;5.30;2.85;;;6.70;99.90;;;;;;4999760;28;20138;-58
2023/04/13 04:10:38;;;;;;;8.15;3.22;;;6.20;99.90;;;;;;5001463;28;20117;-54
2023/04/13 04:13:03;;;;;;;5.75;3.15;;;6.10;99.90;;;;;;5002105;28;20049;-56
2023/04/13 04:15:29;;;;;;;8.05;3.17;;;6.00;99.90;;;;;;5003335;28;20140;-55
2023/04/13 04:17:55;;;;;;;9.25;3.30;;;5.90;99.90;;;;;;5002762;28;20034;-50
2023/04/13 04:20:21;;;;;;;6.30;3.38;;;6.00;99.90;;;;;;5002216;28;20061;-56
2023/04/13 04:22:48;;;;;;;6.55;3.17;;;5.90;99.90;;;;;;5000942;28;20046;-52
2023/04/13 04:25:20;;;;;;;8.20;3.33;;;6.00;99.90;;;;;;5001021;28;20489;-53
2023/04/13 04:27:49;;;;;;;8.85;3.28;;;6.50;99.90;;;;;;5000005;28;20969;-52
2023/04/13 04:30:17;;;;;;;6.00;2.75;;;6.20;99.90;;;;;;4999695;28;20045;-55
2023/04/13 04:32:43;;;;;;;9.35;3.25;;;5.50;99.90;;;;;;5001690;28;20034;-53
2023/04/13 04:35:10;;;;;;;8.30;3.70;;;5.90;99.90;;;;;;5001654;28;20038;-54
2023/04/13 04:37:36;;;;;;;5.57;2.78;;;6.10;99.90;;;;;;5001132;28;20037;-53
2023/04/13 04:40:08;;;;;;;6.55;3.22;;;6.00;99.90;;;;;;5001043;28;20180;-48
2023/04/13 04:42:37;;;;;;;6.43;2.85;;;5.50;99.90;;;;;;4967265;28;20042;-53
2023/04/13 04:45:04;;;;;;;9.32;3.60;;;6.00;99.90;;;;;;5002173;28;20046;-53
2023/04/13 04:47:31;;;;;;;7.05;3.50;;;5.70;99.90;;;;;;5000418;28;20038;-55
2023/04/13 04:49:57;;;;;;;8.25;3.55;;;5.50;99.90;;;;;;5001349;28;20362;-54
2023/04/13 04:52:25;;;;;;;8.82;3.85;;;5.70;99.90;;;;;;5000516;28;20037;-59
2023/04/13 04:54:52;;;;;;;13.93;4.10;;;5.90;99.90;;;;;;4999996;28;20045;-53
2023/04/13 04:57:18;;;;;;;7.82;3.90;;;5.40;99.90;;;;;;5000937;28;20784;-56
2023/04/13 04:59:44;;;;;;;10.00;4.40;;;5.80;99.90;;;;;;5001707;28;20029;-57
2023/04/13 05:02:10;;;;;;;7.55;4.43;;;6.00;99.90;;;;;;5000569;28;20033;-56
2023/04/13 05:04:36;;;;;;;15.25;4.32;;;5.80;99.90;;;;;;4998843;28;20551;-53
2023/04/13 05:07:01;;;;;;;8.88;3.80;;;6.30;99.90;;;;;;5003047;28;20034;-52
2023/04/13 05:09:27;;;;;;;11.60;4.00;;;5.80;99.90;;;;;;4999468;28;20034;-53
2023/04/13 05:11:53;;;;;;;9.43;3.97;;;5.80;99.90;;;;;;4998631;28;20327;-52
2023/04/13 05:14:19;;;;;;;9.35;3.88;;;6.30;99.90;;;;;;5000207;28;20045;-57
2023/04/13 05:16:45;;;;;;;9.25;4.00;;;5.60;99.90;;;;;;5000014;28;20123;-55
2023/04/13 05:19:11;;;;;;;12.50;4.38;;;5.60;99.90;;;;;;5001149;28;20164;-51
2023/04/13 05:21:37;;;;;;;6.97;3.72;;;6.00;99.90;;;;;;5001200;28;20459;-52
2023/04/13 05:24:03;;;;;;;8.73;3.38;;;6.20;99.90;;;;;;5001442;28;20137;-53
2023/04/13 05:26:33;;;;;;;8.57;3.17;;;6.00;99.90;;;;;;5001486;28;20056;-56
2023/04/13 05:28:58;;;;;;;9.10;3.05;;;6.00;99.90;;;;;;5000761;28;20064;-53
2023/04/13 05:31:24;;;;;;;8.82;3.55;;;5.70;99.90;;;;;;4999628;28;20070;-53
2023/04/13 05:33:50;;;;;;;11.13;3.38;;;5.70;99.90;;;;;;5001596;28;20046;-55
2023/04/13 05:36:16;;;;;;;8.35;3.92;;;6.00;99.90;;;;;;5000002;28;20026;-53
2023/04/13 05:38:41;;;;;;;13.05;4.10;;;6.10;99.90;;;;;;5000378;28;20026;-54
2023/04/13 05:41:09;;;;;;;10.93;3.35;;;6.40;99.90;;;;;;4999979;28;20030;-57
2023/04/13 05:43:34;;;;;;;11.13;3.78;;;6.30;99.90;;;;;;4999401;28;20121;-55
2023/04/13 05:46:00;;;;;;;8.98;3.97;;;6.50;99.90;;;;;;5002033;28;20180;-54
2023/04/13 05:48:26;;;;;;;11.40;3.80;;;6.50;99.90;;;;;;5001710;28;20030;-57
2023/04/13 05:50:58;;;;;;;11.80;4.00;;;6.60;99.90;;;;;;5001265;28;20564;-54
2023/04/13 05:53:24;;;;;;;15.63;4.38;;;6.60;99.90;;;;;;5000652;28;20038;-49
2023/04/13 05:55:51;;;;;;;10.38;4.45;;;6.70;99.90;;;;;;4999179;28;20034;-54
2023/04/13 05:58:20;;;;;;;9.38;3.90;;;6.30;99.90;;;;;;4998695;28;22780;-57
2023/04/13 06:00:46;;;;;;;9.73;3.83;;;6.50;99.90;;;;;;5000778;28;20037;-56
2023/04/13 06:03:14;;;;;;;9.63;3.70;;;6.50;99.90;;;;;;4999119;28;20041;-54
2023/04/13 06:05:41;;;;;;;13.55;4.03;;;6.30;99.90;;;;;;5000862;28;20041;-53
2023/04/13 06:08:09;;;;;;;8.18;3.58;;;6.70;99.90;;;;;;4998538;28;20265;-57
2023/04/13 06:10:35;;;;;;;9.07;3.50;;;6.80;99.90;;;;;;5000089;28;20064;-51
2023/04/13 06:13:02;;;;;;;10.55;3.65;;;6.50;99.90;;;;;;4998966;28;20132;-55
2023/04/13 06:15:29;;;;;;;7.95;3.40;;;6.90;99.90;;;;;;4998992;28;20044;-54
2023/04/13 06:17:55;;;;;;;9.10;3.25;;;6.70;99.90;;;;;;5001524;28;20826;-55
2023/04/13 06:20:21;;;;;;;9.65;3.40;;;6.80;99.90;;;;;;4999063;28;20088;-55
2023/04/13 06:22:47;;;;;;;8.75;3.28;;;7.10;99.90;;;;;;5000166;28;20038;-56
2023/04/13 06:25:14;;;;;;;8.90;2.97;;;7.20;99.90;;;;;;4999492;28;20034;-52
2023/04/13 06:27:42;;;;;;;8.18;3.30;;;6.80;99.90;;;;;;4999271;28;20037;-50
2023/04/13 06:30:09;;;;;;;10.48;3.10;;;6.80;99.90;;;;;;4999636;28;20029;-52
2023/04/13 06:32:35;;;;;;;11.32;4.80;;;7.10;99.90;;;;;;4997282;28;20040;-54
2023/04/13 06:35:04;;;;;;;10.82;3.40;;;6.80;99.90;;;;;;4999772;28;20514;-55
2023/04/13 06:37:29;;;;;;;8.77;2.45;;;7.00;99.90;;;;;;4997883;28;20048;-48
2023/04/13 06:39:56;;;;;;;8.18;2.83;;;6.80;99.90;;;;;;4997713;28;20042;-50
2023/04/13 06:42:22;;;;;;;7.68;2.80;;;6.80;99.90;;;;;;5000247;28;20030;-53
2023/04/13 06:44:48;;;;;;;9.00;3.22;;;7.00;99.90;;;;;;4996929;28;20172;-54
2023/04/13 06:47:14;;;;;;;8.63;3.17;;;7.00;99.90;;;;;;4998940;28;20128;-56
2023/04/13 06:49:41;;;;;;;8.15;2.80;;;7.10;99.90;;;;;;4998991;28;20038;-52
2023/04/13 06:52:06;;;;;;;8.70;2.72;;;7.10;99.90;;;;;;4998952;28;20041;-55
2023/04/13 06:54:33;;;;;;;13.60;2.60;;;7.10;99.90;;;;;;4998713;28;20042;-53
2023/04/13 06:57:00;;;;;;;10.70;3.17;;;7.20;99.90;;;;;;4997884;28;20049;-57
2023/04/13 06:59:26;;;;;;;11.23;2.78;;;7.10;99.90;;;;;;4999799;28;20393;-54
2023/04/13 07:01:52;;;;;;;9.32;2.67;;;7.00;99.90;;;;;;5000889;28;20064;-56
2023/04/13 07:04:18;;;;;;;11.13;3.03;;;7.20;99.90;;;;;;4998925;28;20129;-49
2023/04/13 07:06:44;;;;;;;8.88;2.65;;;7.30;99.90;;;;;;4998689;28;20485;-57
2023/04/13 07:09:10;;;;;;;8.95;2.92;;;7.40;99.90;;;;;;4997576;28;20046;-57
2023/04/13 07:11:36;;;;;;;9.35;2.88;;;7.30;99.90;;;;;;4997656;28;20041;-52
2023/04/13 07:14:02;;;;;;;10.98;3.08;;;7.30;99.90;;;;;;4997631;28;20037;-53
2023/04/13 07:16:28;;;;;;;8.13;2.60;;;7.20;99.90;;;;;;5000077;28;20049;-57
2023/04/13 07:18:54;;;;;;;8.20;2.83;;;7.40;99.90;;;;;;4994967;28;20049;-55
2023/04/13 07:21:20;;;;;;;8.30;2.70;;;7.10;99.90;;;;;;4997935;28;20048;-54
2023/04/13 07:23:46;;;;;;;7.10;2.40;;;7.50;99.90;;;;;;4997453;28;20053;-54
2023/04/13 07:26:14;;;;;;;8.05;2.13;;;7.20;99.90;;;;;;4997149;28;20035;-55
2023/04/13 07:28:40;;;;;;;8.13;2.50;;;7.10;99.90;;;;;;4999175;28;20485;-55
2023/04/13 07:31:06;;;;;;;7.15;2.20;;;7.20;99.90;;;;;;4998832;28;20041;-52
2023/04/13 07:33:32;;;;;;;6.68;2.20;;;7.50;99.90;;;;;;5001786;28;20046;-52
2023/04/13 07:35:57;;;;;;;8.85;2.25;;;7.60;99.90;;;;;;5001466;28;20100;-56
2023/04/13 07:38:23;;;;;;;9.38;2.08;;;7.50;99.90;;;;;;5001422;28;20049;-54
2023/04/13 07:40:49;;;;;;;6.72;1.80;;;7.70;99.90;;;;;;5000376;28;20048;-52
2023/04/13 07:43:14;;;;;;;6.65;2.03;;;7.60;99.90;;;;;;5000549;28;20049;-55
2023/04/13 07:45:41;;;;;;;8.80;2.17;;;7.80;99.90;;;;;;5002694;28;20092;-54
2023/04/13 07:48:06;;;;;;;7.07;2.13;;;7.70;99.90;;;;;;5000931;28;20544;-57
2023/04/13 07:50:32;;;;;;;7.95;1.88;;;7.50;99.90;;;;;;5000979;28;20034;-51
2023/04/13 07:52:58;;;;;;;5.13;1.60;;;7.80;99.90;;;;;;5002541;28;20299;-57
2023/04/13 07:55:23;;;;;;;5.07;1.83;;;8.00;99.90;;;;;;5000787;28;20064;-55
2023/04/13 07:57:49;;;;;;;9.10;1.73;;;7.70;99.90;;;;;;5000429;28;20041;-54
2023/04/13 08:00:17;;;;;;;7.57;2.10;;;7.70;99.90;;;;;;5000468;28;20407;-56
2023/04/13 08:02:42;;;;;;;6.30;2.00;;;7.70;99.90;;;;;;5002732;28;20378;-55
2023/04/13 08:05:09;;;;;;;5.07;2.08;;;8.00;99.90;;;;;;5002574;28;20544;-53
2023/04/13 08:07:35;;;;;;;5.18;1.77;;;7.80;99.90;;;;;;5002357;28;20455;-51
2023/04/13 08:10:02;;;;;;;9.68;2.03;;;8.10;99.90;;;;;;4997400;28;20061;-58
2023/04/13 08:12:28;;;;;;;4.35;1.55;;;7.80;99.90;;;;;;5000211;28;20096;-51
2023/04/13 08:14:54;;;;;;;6.63;1.70;;;8.00;99.90;;;;;;4994777;28;20037;-55
2023/04/13 08:17:20;;;;;;;6.10;2.00;;;8.00;99.90;;;;;;5000310;28;20383;-56
2023/04/13 08:19:46;;;;;;;4.82;2.70;;;8.40;99.90;;;;;;5000899;28;20041;-57
2023/04/13 08:22:12;;;;;;;7.68;1.98;;;8.20;99.90;;;;;;5000522;28;20038;-57
2023/04/13 08:24:37;;;;;;;11.20;2.15;;;8.20;99.90;;;;;;5000440;28;20096;-51
2023/04/13 08:27:06;;;;;;;5.70;1.85;;;8.20;99.90;;;;;;5001214;28;20034;-52
2023/04/13 08:29:31;;;;;;;4.32;1.60;;;8.30;99.90;;;;;;5000116;28;20320;-58
2023/04/13 08:31:57;;;;;;;5.13;1.55;;;8.10;99.90;;;;;;4998839;28;20036;-52
2023/04/13 08:34:23;;;;;;;5.63;2.03;;;8.30;99.90;;;;;;4998928;28;20104;-51
2023/04/13 08:36:49;;;;;;;3.78;1.92;;;8.20;99.90;;;;;;4999444;28;20050;-53
2023/04/13 08:39:15;;;;;;;8.02;1.80;;;8.40;99.90;;;;;;4998462;28;20041;-51
2023/04/13 08:41:48;;;;;;;9.13;2.15;;;8.50;99.90;;;;;;5000240;28;20071;-51
2023/04/13 08:44:14;;;;;;;8.88;2.10;;;8.50;99.90;;;;;;4998099;28;20058;-55
2023/04/13 08:46:42;;;;;;;6.97;2.22;;;8.60;99.90;;;;;;4997647;28;21039;-55
2023/04/13 08:49:10;;;;;;;7.32;1.70;;;9.00;99.90;;;;;;4998717;28;20068;-60
2023/04/13 08:51:37;;;;;;;7.85;1.83;;;8.80;99.90;;;;;;4999047;28;20630;-51
2023/04/13 08:54:03;;;;;;;7.80;1.67;;;8.80;99.90;;;;;;4997694;28;20499;-54
2023/04/13 08:56:30;;;;;;;5.47;1.30;;;8.80;99.90;;;;;;4997347;28;20038;-56
2023/04/13 08:59:03;;;;;;;7.63;1.77;;;8.90;99.90;;;;;;4997156;28;20188;-55
2023/04/13 09:01:31;;;;;;;10.30;2.00;;;8.70;99.90;;;;;;4998677;28;20041;-56
2023/04/13 09:04:10;;;;;;;8.40;1.80;;;8.60;99.90;;;;;;4999886;28;20049;-53
2023/04/13 09:06:39;;;;;;;5.70;1.15;;;8.30;99.90;;;;;;4999983;28;20436;-54
2023/04/13 09:09:13;;;;;;;5.20;1.20;;;8.20;99.90;;;;;;4990173;28;20030;-54
2023/04/13 09:11:40;;;;;;;4.55;1.17;;;7.90;99.90;;;;;;5008120;28;20037;-59
2023/04/13 09:14:07;;;;;;;5.15;1.00;;;7.70;99.90;;;;;;5010937;28;20048;-59
2023/04/13 09:16:40;;;;;;;4.05;0.70;;;7.40;99.90;;;;;;5010215;28;20149;-53
2023/04/13 09:19:07;;;;;;;3.83;1.02;;;7.40;99.90;;;;;;5008819;28;20119;-51
2023/04/13 09:21:43;;;;;;;7.35;1.30;;;7.30;99.90;;;;;;5011868;28;20038;-50
2023/04/13 09:24:10;;;;;;;5.28;1.13;;;7.30;99.90;;;;;;5011441;28;20049;-54
2023/04/13 09:26:44;;;;;;;5.47;1.20;;;7.60;99.90;;;;;;5011959;28;20026;-56
2023/04/13 09:29:15;;;;;;;7.88;1.58;;;7.80;99.90;;;;;;5010576;28;20034;-58
2023/04/13 09:31:41;;;;;;;6.60;1.67;;;8.00;99.90;;;;;;5011644;28;20116;-54
2023/04/13 09:34:07;;;;;;;6.93;1.33;;;8.60;99.90;;;;;;5011622;28;20490;-59
2023/04/13 09:36:34;;;;;;;12.15;1.90;;;8.70;99.90;;;;;;5011523;28;20056;-52
2023/04/13 09:39:00;;;;;;;10.35;1.83;;;8.70;99.90;;;;;;5009972;28;20080;-52
2023/04/13 09:41:37;;;;;;;9.90;2.03;;;8.90;99.90;;;;;;5009749;28;20462;-55
2023/04/13 09:44:16;;;;;;;9.30;1.90;;;9.40;99.90;;;;;;5009675;28;20049;-56
2023/04/13 09:46:43;;;;;;;5.93;1.90;;;9.50;99.90;;;;;;5010702;28;20046;-49
2023/04/13 09:49:09;;;;;;;9.75;1.65;;;9.60;99.90;;;;;;5009533;28;20100;-54
2023/04/13 09:51:44;;;;;;;11.35;1.70;;;9.70;99.90;;;;;;5011053;28;20041;-51
2023/04/13 09:54:10;;;;;;;7.22;1.80;;;9.80;99.90;;;;;;5003600;28;20088;-57
2023/04/13 09:56:43;;;;;;;9.13;1.48;;;9.70;99.90;;;;;;5007334;28;20065;-57
2023/04/13 09:59:10;;;;;;;8.00;1.73;;;9.50;99.90;;;;;;5005385;28;20477;-57
2023/04/13 10:01:37;;;;;;;7.40;2.00;;;9.30;99.90;;;;;;5005666;28;20513;-56
2023/04/13 10:04:07;;;;;;;9.27;1.90;;;9.20;99.90;;;;;;5008242;28;20084;-53
2023/04/13 10:06:41;;;;;;;15.70;2.20;;;9.30;99.90;;;;;;5009584;28;20033;-56
2023/04/13 10:09:08;;;;;;;15.80;2.20;;;9.50;99.90;;;;;;4998173;28;20052;-54
2023/04/13 10:11:54;;;;;;;9.88;1.98;;;9.70;99.90;;;;;;5001619;28;20037;-50
2023/04/13 10:14:31;;;;;;;15.75;2.33;;;9.70;99.90;;;;;;5003119;28;20100;-50
2023/04/13 10:17:44;;;;;;;11.13;2.28;;;9.70;99.90;;;;;;5002297;28;20127;-55
2023/04/13 10:20:12;;;;;;;10.80;2.47;;;9.80;99.90;;;;;;4999481;28;20456;-55
2023/04/13 10:22:42;;;;;;;14.38;2.00;;;10.00;99.90;;;;;;4985629;28;20037;-54
2023/04/13 10:25:13;;;;;;;15.50;2.40;;;10.00;99.90;;;;;;5005959;28;20030;-50
2023/04/13 10:27:40;;;;;;;11.43;2.00;;;10.00;99.90;;;;;;5004442;28;20103;-51
2023/04/13 10:30:16;;;;;;;14.02;2.20;;;10.10;99.90;;;;;;5005189;28;20095;-57
2023/04/13 10:32:42;;;;;;;11.63;1.98;;;10.10;99.90;;;;;;5002708;28;20038;-53
2023/04/13 10:35:10;;;;;;;15.35;2.45;;;10.20;99.90;;;;;;4987005;28;20034;-55
2023/04/13 10:37:38;;;;;;;14.90;3.03;;;10.30;99.90;;;;;;5003736;28;20042;-57
2023/04/13 10:40:06;;;;;;;13.55;2.10;;;10.30;99.90;;;;;;5004775;28;20061;-54
2023/04/13 10:42:41;;;;;;;15.15;2.38;;;10.40;99.90;;;;;;5001730;28;20517;-53
2023/04/13 10:45:26;;;;;;;13.48;2.20;;;10.60;99.90;;;;;;5004190;28;20513;-57
2023/04/13 10:47:54;;;;;;;14.00;1.98;;;10.70;99.90;;;;;;5006360;28;20061;-51
2023/04/13 10:50:26;;;;;;;15.23;2.17;;;10.70;99.90;;;;;;5002392;28;20030;-54
2023/04/13 10:53:05;;;;;;;10.15;2.10;;;10.70;99.90;;;;;;5005109;28;20062;-55
2023/04/13 10:55:34;;;;;;;13.52;2.30;;;10.60;99.90;;;;;;5003496;28;20473;-55
2023/04/13 10:58:02;;;;;;;12.60;2.35;;;10.60;99.90;;;;;;5001079;28;20113;-58
2023/04/13 11:00:29;;;;;;;10.15;1.95;;;10.50;99.90;;;;;;5004649;28;20456;-49
2023/04/13 11:02:58;;;;;;;14.35;2.20;;;10.50;99.90;;;;;;5006013;28;20046;-52
2023/04/13 11:05:25;;;;;;;13.00;2.35;;;10.40;99.90;;;;;;5004708;28;20037;-53
2023/04/13 11:07:52;;;;;;;11.68;2.35;;;10.40;99.90;;;;;;5006507;28;20033;-56
2023/04/13 11:10:27;;;;;;;12.60;2.50;;;10.40;99.90;;;;;;5005455;28;20034;-56
2023/04/13 11:12:57;;;;;;;9.73;2.47;;;10.50;99.90;;;;;;5007973;28;20123;-56
2023/04/13 11:15:28;;;;;;;8.23;1.80;;;10.50;99.90;;;;;;5008635;28;20033;-59
2023/04/13 11:17:58;;;;;;;12.77;2.10;;;10.60;99.90;;;;;;5004600;28;20434;-52
2023/04/13 11:20:38;;;;;;;17.88;3.00;;;10.60;99.90;;;;;;5004987;28;20042;-54
2023/04/13 11:23:06;;;;;;;10.00;1.65;;;10.60;99.90;;;;;;5009315;28;20044;-52
2023/04/13 11:25:35;;;;;;;7.60;2.00;;;10.70;99.90;;;;;;5006292;28;20044;-56
2023/04/13 11:28:02;;;;;;;10.00;1.90;;;10.80;99.90;;;;;;4988878;28;20043;-55
2023/04/13 11:30:29;;;;;;;8.35;1.98;;;10.90;99.90;;;;;;5005149;28;20030;-54
2023/04/13 11:32:58;;;;;;;9.20;1.70;;;10.80;99.90;;;;;;5008863;28;20121;-50
2023/04/13 11:35:25;;;;;;;9.23;1.90;;;10.80;99.90;;;;;;5008643;28;20030;-54
2023/04/13 11:37:54;;;;;;;8.95;2.30;;;10.70;99.90;;;;;;4988001;28;20041;-50
2023/04/13 11:40:26;;;;;;;11.65;1.77;;;10.70;99.90;;;;;;5009127;28;20524;-54
2023/04/13 11:42:54;;;;;;;11.15;1.95;;;10.70;99.90;;;;;;5006904;28;20081;-55
2023/04/13 11:45:29;;;;;;;7.88;1.65;;;10.70;99.90;;;;;;4991989;28;20050;-53
2023/04/13 11:47:56;;;;;;;9.10;1.73;;;10.70;99.90;;;;;;5010283;28;20058;-55
2023/04/13 11:50:22;;;;;;;10.60;2.15;;;9.50;99.90;;;;;;5010764;28;20034;-54
2023/04/13 11:52:51;;;;;;;7.90;1.42;;;10.60;99.90;;;;;;5012772;28;20041;-53
2023/04/13 11:55:18;;;;;;;10.48;1.90;;;10.60;99.90;;;;;;5010755;28;20091;-52
2023/04/13 11:57:44;;;;;;;10.70;2.25;;;10.60;99.90;;;;;;5012639;28;20056;-54
2023/04/13 12:00:22;;;;;;;9.68;1.60;;;10.60;99.90;;;;;;5010416;28;20116;-58
2023/04/13 12:02:50;;;;;;;11.95;2.28;;;10.60;99.90;;;;;;5011967;28;20045;-59
2023/04/13 12:05:21;;;;;;;16.05;1.73;;;10.70;99.90;;;;;;5012553;28;20030;-52
2023/04/13 12:07:47;;;;;;;14.52;2.25;;;10.80;99.90;;;;;;5010343;28;20034;-51
2023/04/13 12:10:27;;;;;;;10.35;1.80;;;10.90;99.90;;;;;;4993158;28;20052;-52
2023/04/13 12:13:05;;;;;;;10.73;1.70;;;11.00;99.90;;;;;;5012422;28;20104;-52
2023/04/13 12:15:33;;;;;;;13.23;1.70;;;10.90;99.90;;;;;;5011275;28;20116;-54
2023/04/13 12:18:03;;;;;;;11.25;1.58;;;10.90;99.90;;;;;;5011302;28;20057;-56
2023/04/13 12:20:38;;;;;;;14.52;2.30;;;10.80;99.90;;;;;;5011736;28;20041;-52
2023/04/13 12:23:22;;;;;;;12.10;2.03;;;10.80;99.90;;;;;;5013087;28;20061;-58
2023/04/13 12:25:56;;;;;;;11.23;2.00;;;10.90;99.90;;;;;;5012778;28;20038;-50
2023/04/13 12:28:27;;;;;;;12.05;2.05;;;11.00;99.90;;;;;;5013139;28;20401;-53
2023/04/13 12:30:53;;;;;;;10.65;1.80;;;11.00;99.90;;;;;;5012894;28;20038;-57
2023/04/13 12:33:19;;;;;;;11.13;1.67;;;11.00;99.90;;;;;;5011958;28;20124;-59
2023/04/13 12:35:45;;;;;;;7.28;1.52;;;11.00;99.90;;;;;;5011411;28;20053;-55
2023/04/13 12:38:11;;;;;;;11.85;2.28;;;11.10;99.90;;;;;;5012700;28;20076;-60
2023/04/13 12:40:37;;;;;;;9.52;1.40;;;11.40;99.90;;;;;;5012015;28;20061;-53
2023/04/13 12:43:02;;;;;;;8.40;1.77;;;11.70;99.90;;;;;;5011465;28;20050;-50
2023/04/13 12:45:29;;;;;;;10.77;1.83;;;11.80;99.90;;;;;;5023426;28;20095;-56
2023/04/13 12:47:55;;;;;;;8.68;1.60;;;11.90;99.90;;;;;;5012585;28;20076;-53
2023/04/13 12:50:21;;;;;;;7.80;1.33;;;11.90;99.90;;;;;;5012643;28;20474;-59
2023/04/13 12:52:46;;;;;;;9.50;1.92;;;12.00;99.90;;;;;;5010810;28;20025;-56
2023/04/13 12:55:12;;;;;;;8.73;1.70;;;12.20;99.90;;;;;;5012563;28;20037;-55
2023/04/13 12:57:38;;;;;;;9.15;1.70;;;12.30;99.90;;;;;;5012462;28;20988;-56
2023/04/13 13:00:09;;;;;;;10.27;1.88;;;12.20;99.90;;;;;;5014310;28;20537;-59
2023/04/13 13:02:35;;;;;;;9.10;1.98;;;12.00;99.90;;;;;;5011930;28;20042;-58
2023/04/13 13:05:00;;;;;;;10.90;2.53;;;12.00;99.90;;;;;;5013271;28;20034;-58
2023/04/13 13:07:26;;;;;;;9.38;1.80;;;12.10;99.90;;;;;;5012383;28;20152;-56
2023/04/13 13:09:52;;;;;;;11.52;2.10;;;12.10;99.90;;;;;;5011709;28;20038;-56
2023/04/13 13:12:17;;;;;;;11.13;2.35;;;12.00;99.90;;;;;;5011643;28;20045;-54
2023/04/13 13:14:43;;;;;;;11.85;2.10;;;11.90;99.90;;;;;;5011758;28;20129;-53
2023/04/13 13:17:09;;;;;;;11.15;1.80;;;11.80;99.90;;;;;;5011779;28;20048;-51
2023/04/13 13:19:35;;;;;;;10.07;1.70;;;11.80;99.90;;;;;;5010956;28;20088;-54
2023/04/13 13:22:01;;;;;;;12.07;2.25;;;12.10;99.90;;;;;;5011947;28;20075;-55
2023/04/13 13:24:29;;;;;;;8.60;1.35;;;12.10;99.90;;;;;;5011617;28;20477;-57
2023/04/13 13:26:54;;;;;;;14.65;1.75;;;12.00;99.90;;;;;;5011878;28;20560;-50
2023/04/13 13:29:23;;;;;;;10.65;2.17;;;12.00;99.90;;;;;;5011345;28;20042;-55
2023/04/13 13:31:50;;;;;;;6.10;1.40;;;12.10;99.90;;;;;;5011196;28;20033;-53
2023/04/13 13:34:16;;;;;;;9.93;1.55;;;12.30;99.90;;;;;;5011773;28;20052;-60
2023/04/13 13:36:41;;;;;;;9.57;2.08;;;12.70;99.90;;;;;;5011377;28;20109;-52
2023/04/13 13:39:07;;;;;;;8.50;1.92;;;13.10;99.90;;;;;;5011664;28;20042;-55
2023/04/13 13:41:33;;;;;;;8.20;1.85;;;13.30;99.90;;;;;;5011034;28;20085;-58
2023/04/13 13:43:58;;;;;;;9.27;1.70;;;13.50;99.90;;;;;;5011374;28;20422;-53
2023/04/13 13:46:24;;;;;;;10.70;1.90;;;13.60;99.90;;;;;;5011204;28;20053;-55
2023/04/13 13:48:50;;;;;;;10.82;2.42;;;13.50;99.90;;;;;;5010391;28;20033;-58
2023/04/13 13:51:15;;;;;;;8.98;1.80;;;13.60;99.90;;;;;;5010654;28;20087;-53
2023/04/13 13:53:41;;;;;;;8.45;2.00;;;13.70;99.90;;;;;;5009676;28;20041;-52
2023/04/13 13:56:06;;;;;;;7.32;1.60;;;13.70;99.90;;;;;;4992658;28;20044;-56
2023/04/13 13:58:32;;;;;;;10.43;2.08;;;13.40;99.90;;;;;;4975586;28;20501;-57
2023/04/13 14:00:58;;;;;;;9.50;1.63;;;13.20;99.90;;;;;;4993581;28;20041;-55
2023/04/13 14:03:24;;;;;;;9.82;1.90;;;12.90;99.90;;;;;;4992173;28;20034;-53
2023/04/13 14:05:50;;;;;;;11.07;1.73;;;12.70;99.90;;;;;;5009876;28;20053;-48
2023/04/13 14:08:16;;;;;;;10.10;2.38;;;12.50;99.90;;;;;;4993531;28;20047;-51
2023/04/13 14:10:47;;;;;;;11.30;2.70;;;12.50;99.90;;;;;;5003415;28;20116;-57
2023/04/13 14:13:12;;;;;;;8.60;1.60;;;12.40;99.90;;;;;;4983821;28;20074;-53
2023/04/13 14:15:38;;;;;;;10.35;2.30;;;12.40;99.90;;;;;;4969358;28;20073;-55
2023/04/13 14:18:04;;;;;;;7.55;1.73;;;12.30;99.90;;;;;;5001517;28;20395;-57
2023/04/13 14:20:30;;;;;;;13.63;2.35;;;12.40;99.90;;;;;;4980893;28;20046;-60
2023/04/13 14:22:56;;;;;;;8.43;1.98;;;12.50;99.90;;;;;;4998959;28;20121;-57
2023/04/13 14:25:22;;;;;;;8.73;2.33;;;12.60;99.90;;;;;;5004093;28;20084;-53
2023/04/13 14:27:49;;;;;;;6.90;1.50;;;12.70;99.90;;;;;;5002201;28;20416;-58
2023/04/13 14:30:16;;;;;;;11.00;2.08;;;12.70;99.90;;;;;;4997523;28;20157;-57
2023/04/13 14:32:43;;;;;;;9.35;2.22;;;12.70;99.90;;;;;;5001513;28;20041;-52
2023/04/13 14:35:09;;;;;;;9.88;2.22;;;13.00;99.90;;;;;;4982605;28;20049;-56